CheckWX is a tool to help pilots better visualize weather data.  It is not intended as a substitute for an official pre-flight weather briefing.

03:03:20 UTC

CYXT METAR
Terrace Airport
Terrace, , Canada
Current

1 hour ago

CYXT 180200Z 36017G25KT 20SM SKC M05/M16 A3048 RMK SLP340
Observed
Feb-18 @ 02:00 UTC
Wind
  • 360° at 17 KTS
  • Gusting to 25 KTS
Visibility
20 SM
Flight Rules
VFR
Cloud Levels
  • Clear skies
Temperature
-5°C / 23°F
Dewpoint
-16°C / 3°F
Humidity
42%
Altimeter
30.48" Hg
Pressure
1034 hPa
Previous

2 hours ago

CYXT 180100Z 36016G22KT 20SM SKC M04/M16 A3047 RMK SLP335
Observed
Feb-18 @ 01:00 UTC
Wind
  • 360° at 16 KTS
  • Gusting to 22 KTS
Visibility
20 SM
Flight Rules
VFR
Cloud Levels
  • Clear skies
Temperature
-4°C / 25°F
Dewpoint
-16°C / 3°F
Humidity
39%
Altimeter
30.47" Hg
Pressure
1033.5 hPa
Previous

3 hours ago

CYXT 180000Z 02017G23KT 20SM SKC M04/M16 A3048 RMK SLP339
Observed
Feb-18 @ 00:00 UTC
Wind
  • 020° at 17 KTS
  • Gusting to 23 KTS
Visibility
20 SM
Flight Rules
VFR
Cloud Levels
  • Clear skies
Temperature
-4°C / 25°F
Dewpoint
-16°C / 3°F
Humidity
39%
Altimeter
30.48" Hg
Pressure
1033.9 hPa